Time;durP1;ratioP1;P1;durP2;ratioP2;P2;SDS_P1;SDS_P2;PMS_P1;PMS_P2;Temp;Humidity;BMP_temperature;BMP_pressure;BME280_temperature;BME280_humidity;BME280_pressure;Samples;Min_cycle;Max_cycle;Signal;HPM_P1;HPM_P2
2020/12/01 00:02:04;;;;;;;;;;;1.00;99.90;;;;;;5092761;28;19928;-76
2020/12/01 00:04:30;;;;;;;;;;;1.00;99.90;;;;;;5093113;28;19924;-75
2020/12/01 00:06:56;;;;;;;;;;;1.00;99.90;;;;;;5093003;28;19931;-76
2020/12/01 00:09:22;;;;;;;;;;;1.10;99.90;;;;;;5092773;28;19925;-76
2020/12/01 00:11:48;;;;;;;;;;;1.20;99.90;;;;;;5092416;28;19924;-76
2020/12/01 00:14:14;;;;;;;;;;;1.20;99.90;;;;;;5108726;28;19923;-74
2020/12/01 00:16:40;;;;;;;;;;;1.20;99.90;;;;;;5112781;27;19969;-75
2020/12/01 00:19:06;;;;;;;;;;;1.40;99.90;;;;;;5112917;28;19924;-77
2020/12/01 00:21:32;;;;;;;;;;;1.40;99.90;;;;;;5113050;28;20277;-77
2020/12/01 00:23:58;;;;;;;;;;;1.50;99.90;;;;;;5112985;27;19924;-76
2020/12/01 00:26:24;;;;;;;;;;;1.50;99.90;;;;;;5112806;28;19969;-77
2020/12/01 00:28:50;;;;;;;;;;;1.50;99.90;;;;;;5113000;28;19923;-77
2020/12/01 00:31:17;;;;;;;;;;;1.50;99.90;;;;;;5111115;28;19935;-77
2020/12/01 00:33:44;;;;;;;;;;;1.50;99.90;;;;;;5112963;28;20371;-77
2020/12/01 00:36:10;;;;;;;;;;;1.60;99.90;;;;;;5112928;28;20002;-77
2020/12/01 00:38:36;;;;;;;;;;;1.60;99.90;;;;;;5112807;28;19993;-77
2020/12/01 00:41:02;;;;;;;;;;;1.60;99.90;;;;;;5112489;28;19924;-77
2020/12/01 00:43:28;;;;;;;;;;;1.60;99.90;;;;;;5112972;28;20288;-76
2020/12/01 00:45:54;;;;;;;;;;;1.60;99.90;;;;;;5103707;28;19925;-76
2020/12/01 00:48:20;;;;;;;;;;;1.60;99.90;;;;;;5072371;28;19924;-76
2020/12/01 00:50:47;;;;;;;;;;;1.60;99.90;;;;;;5072150;28;19932;-76
2020/12/01 00:53:13;;;;;;;;;;;1.70;99.90;;;;;;5071871;28;19969;-76
2020/12/01 00:55:39;;;;;;;;;;;1.80;99.90;;;;;;5072348;28;19924;-76
2020/12/01 00:58:05;;;;;;;;;;;1.80;99.90;;;;;;5072294;28;20403;-76
2020/12/01 01:00:32;;;;;;;;;;;1.80;99.90;;;;;;5084170;28;19981;-77
2020/12/01 01:02:58;;;;;;;;;;;1.80;99.90;;;;;;5092148;28;19924;-77
2020/12/01 01:05:24;;;;;;;;;;;1.80;99.90;;;;;;5092486;28;19970;-75
2020/12/01 01:07:51;;;;;;;;;;;1.80;99.90;;;;;;5092238;28;19924;-78
2020/12/01 01:10:18;;;;;;;;;;;1.90;99.90;;;;;;5092034;28;19985;-76
2020/12/01 01:12:44;;;;;;;;;;;1.90;99.90;;;;;;5092233;28;19928;-76
2020/12/01 01:15:10;;;;;;;;;;;1.90;99.90;;;;;;5103615;28;20396;-76
2020/12/01 01:17:36;;;;;;;;;;;1.90;99.90;;;;;;5112671;28;19982;-76
2020/12/01 01:20:03;;;;;;;;;;;1.90;99.90;;;;;;5112669;28;19928;-76
2020/12/01 01:22:29;;;;;;;;;;;1.90;99.90;;;;;;5112173;28;19969;-76
2020/12/01 01:24:55;;;;;;;;;;;1.90;99.90;;;;;;5112615;28;19932;-76
2020/12/01 01:27:21;;;;;;;;;;;1.90;99.90;;;;;;5112125;28;19927;-77
2020/12/01 01:29:47;;;;;;;;;;;1.90;99.90;;;;;;5095856;28;19931;-77
2020/12/01 01:32:13;;;;;;;;;;;2.00;99.90;;;;;;5095713;28;20290;-76
2020/12/01 01:34:39;;;;;;;;;;;1.90;99.90;;;;;;5096178;28;19977;-76
2020/12/01 01:37:05;;;;;;;;;;;1.90;99.90;;;;;;5110676;28;19924;-76
2020/12/01 01:39:31;;;;;;;;;;;2.00;99.90;;;;;;5116151;28;19951;-76
2020/12/01 01:41:58;;;;;;;;;;;1.90;99.90;;;;;;5116006;28;19931;-76
2020/12/01 01:44:26;;;;;;;;;;;1.90;99.90;;;;;;5116227;28;19923;-76
2020/12/01 01:46:53;;;;;;;;;;;1.90;99.90;;;;;;5115730;28;19923;-76
2020/12/01 01:49:21;;;;;;;;;;;2.00;99.90;;;;;;5116074;28;19923;-75
2020/12/01 01:51:49;;;;;;;;;;;2.00;99.90;;;;;;5115948;28;20010;-76
2020/12/01 01:54:16;;;;;;;;;;;2.00;99.90;;;;;;5102930;28;19928;-75
2020/12/01 01:56:43;;;;;;;;;;;2.10;99.90;;;;;;5103358;28;19992;-75
2020/12/01 01:59:11;;;;;;;;;;;2.00;99.90;;;;;;5115805;28;19924;-75
2020/12/01 02:01:37;;;;;;;;;;;2.00;99.90;;;;;;5115302;28;19977;-75
2020/12/01 02:04:04;;;;;;;;;;;2.00;99.90;;;;;;5115629;28;19923;-75
2020/12/01 02:06:33;;;;;;;;;;;2.00;99.90;;;;;;5115484;28;19988;-75
2020/12/01 02:09:00;;;;;;;;;;;2.00;99.90;;;;;;5101444;28;19924;-76
2020/12/01 02:11:27;;;;;;;;;;;2.00;99.90;;;;;;5094839;28;19924;-75
2020/12/01 02:13:58;;;;;;;;;;;2.00;99.90;;;;;;5095090;28;19977;-75
2020/12/01 02:16:24;;;;;;;;;;;2.00;99.90;;;;;;5095053;28;19924;-75
2020/12/01 02:18:52;;;;;;;;;;;2.10;99.90;;;;;;5094940;28;19924;-76
2020/12/01 02:21:39;;;;;;;;;;;2.10;99.90;;;;;;5094625;28;19930;-76
2020/12/01 02:24:06;;;;;;;;;;;2.10;99.90;;;;;;5090267;28;19928;-76
2020/12/01 02:26:34;;;;;;;;;;;2.10;99.90;;;;;;5105092;28;19934;-75
2020/12/01 02:29:01;;;;;;;;;;;2.10;99.90;;;;;;5115130;28;19924;-76
2020/12/01 02:31:27;;;;;;;;;;;2.10;99.90;;;;;;5114768;28;19927;-75
2020/12/01 02:33:53;;;;;;;;;;;2.00;99.90;;;;;;5115249;28;19931;-75
2020/12/01 02:36:19;;;;;;;;;;;2.00;99.90;;;;;;5115013;28;19931;-76
2020/12/01 02:38:45;;;;;;;;;;;2.00;99.90;;;;;;5114550;28;19969;-76
2020/12/01 02:41:11;;;;;;;;;;;2.00;99.90;;;;;;5100429;28;19928;-76
2020/12/01 02:43:38;;;;;;;;;;;3.20;99.90;;;;;;5094417;28;19950;-76
2020/12/01 02:46:04;;;;;;;;;;;2.10;99.90;;;;;;5094297;28;19973;-76
2020/12/01 02:48:30;;;;;;;;;;;2.10;99.90;;;;;;5094438;28;19924;-76
2020/12/01 02:50:56;;;;;;;;;;;2.10;99.90;;;;;;5094520;28;19931;-76
2020/12/01 02:53:22;;;;;;;;;;;2.10;99.90;;;;;;5093350;28;19935;-76
2020/12/01 02:55:48;;;;;;;;;;;2.10;99.90;;;;;;5094294;28;19931;-76
2020/12/01 02:58:14;;;;;;;;;;;2.10;99.90;;;;;;5111803;28;20009;-75
2020/12/01 03:00:43;;;;;;;;;;;2.00;99.90;;;;;;5114526;28;19924;-75
2020/12/01 03:03:09;;;;;;;;;;;2.00;99.90;;;;;;5114269;28;19924;-74
2020/12/01 03:05:35;;;;;;;;;;;2.10;99.90;;;;;;5112694;28;20343;-74
2020/12/01 03:08:01;;;;;;;;;;;2.10;99.90;;;;;;5114212;28;19934;-74
2020/12/01 03:10:27;;;;;;;;;;;2.10;99.90;;;;;;5114145;28;19931;-74
2020/12/01 03:12:53;;;;;;;;;;;2.10;99.90;;;;;;5114152;28;19931;-74
2020/12/01 03:15:20;;;;;;;;;;;2.10;99.90;;;;;;5114266;28;20273;-71
2020/12/01 03:17:47;;;;;;;;;;;2.10;99.90;;;;;;5114202;28;19950;-72
2020/12/01 03:20:13;;;;;;;;;;;2.20;99.90;;;;;;5114120;28;19923;-75
2020/12/01 03:22:39;;;;;;;;;;;2.10;99.90;;;;;;5113923;28;20352;-74
2020/12/01 03:25:05;;;;;;;;;;;2.20;99.90;;;;;;5114191;28;19931;-72
2020/12/01 03:27:31;;;;;;;;;;;2.20;99.90;;;;;;5113880;28;19923;-74
2020/12/01 03:29:57;;;;;;;;;;;2.20;99.90;;;;;;5114147;28;19928;-74
2020/12/01 03:32:23;;;;;;;;;;;2.20;99.90;;;;;;5111915;28;19924;-74
2020/12/01 03:34:51;;;;;;;;;;;2.20;99.90;;;;;;5093873;28;19932;-73
2020/12/01 03:37:17;;;;;;;;;;;2.20;99.90;;;;;;5093346;28;20342;-73
2020/12/01 03:39:43;;;;;;;;;;;2.20;99.90;;;;;;5093557;28;19928;-73
2020/12/01 03:42:09;;;;;;;;;;;2.20;99.90;;;;;;5093159;28;19924;-75
2020/12/01 03:44:35;;;;;;;;;;;2.20;99.90;;;;;;5093626;28;19931;-75
2020/12/01 03:47:01;;;;;;;;;;;2.20;99.90;;;;;;5093296;28;20392;-75
2020/12/01 03:49:27;;;;;;;;;;;2.20;99.90;;;;;;5093139;28;19928;-75
2020/12/01 03:51:54;;;;;;;;;;;2.20;99.90;;;;;;5091980;28;19924;-75
2020/12/01 03:54:20;;;;;;;;;;;2.20;99.90;;;;;;5093385;28;19928;-75
2020/12/01 03:56:46;;;;;;;;;;;2.30;99.90;;;;;;5093099;28;19924;-76
2020/12/01 03:59:12;;;;;;;;;;;2.20;99.90;;;;;;5093081;28;19934;-76
2020/12/01 04:01:38;;;;;;;;;;;2.20;99.90;;;;;;5092630;28;19931;-75
2020/12/01 04:04:04;;;;;;;;;;;2.20;99.90;;;;;;5092930;28;19924;-75
2020/12/01 04:06:30;;;;;;;;;;;2.20;99.90;;;;;;5092852;28;19970;-75
2020/12/01 04:08:57;;;;;;;;;;;2.20;99.90;;;;;;5093051;28;19932;-77
2020/12/01 04:11:24;;;;;;;;;;;2.20;99.90;;;;;;5092731;28;19970;-76
2020/12/01 04:13:50;;;;;;;;;;;2.20;99.90;;;;;;5092821;28;19924;-76
2020/12/01 04:16:16;;;;;;;;;;;2.20;99.90;;;;;;5092684;28;19928;-76
2020/12/01 04:18:43;;;;;;;;;;;2.20;99.90;;;;;;5092397;28;19930;-75
2020/12/01 04:21:09;;;;;;;;;;;2.30;99.90;;;;;;5092341;28;19985;-76
2020/12/01 04:23:34;;;;;;;;;;;2.20;99.90;;;;;;5092752;28;20373;-76
2020/12/01 04:26:01;;;;;;;;;;;2.30;99.90;;;;;;5092862;28;19930;-76
2020/12/01 04:28:27;;;;;;;;;;;2.30;99.90;;;;;;5092643;28;19936;-76
2020/12/01 04:30:53;;;;;;;;;;;2.30;99.90;;;;;;5092471;28;19924;-76
2020/12/01 04:33:19;;;;;;;;;;;2.30;99.90;;;;;;5092499;28;20277;-76
2020/12/01 04:35:45;;;;;;;;;;;2.30;99.90;;;;;;5092346;28;19928;-76
2020/12/01 04:38:11;;;;;;;;;;;2.30;99.90;;;;;;5092712;28;19924;-76
2020/12/01 04:40:39;;;;;;;;;;;2.40;99.90;;;;;;5092293;28;20045;-76
2020/12/01 04:43:11;;;;;;;;;;;2.30;99.90;;;;;;5092218;28;20442;-76
2020/12/01 04:45:37;;;;;;;;;;;2.30;99.90;;;;;;5092352;28;19928;-76
2020/12/01 04:48:04;;;;;;;;;;;2.30;99.90;;;;;;5092253;28;19925;-76
2020/12/01 04:50:32;;;;;;;;;;;2.30;99.90;;;;;;5092404;28;19977;-76
2020/12/01 04:53:14;;;;;;;;;;;2.30;99.90;;;;;;5092070;28;20018;-76
2020/12/01 04:55:59;;;;;;;;;;;2.30;99.90;;;;;;5092366;28;19924;-76
2020/12/01 04:58:45;;;;;;;;;;;2.30;99.90;;;;;;5092178;28;20384;-76
2020/12/01 05:01:13;;;;;;;;;;;2.30;99.90;;;;;;5092359;28;19928;-76
2020/12/01 05:03:51;;;;;;;;;;;2.30;99.90;;;;;;5095802;28;19924;-76
2020/12/01 05:06:41;;;;;;;;;;;2.30;99.90;;;;;;5096671;28;19924;-76
2020/12/01 05:09:09;;;;;;;;;;;2.20;99.90;;;;;;5096531;28;20020;-76
2020/12/01 05:11:39;;;;;;;;;;;2.20;99.90;;;;;;5095920;28;19931;-76
2020/12/01 05:14:12;;;;;;;;;;;2.20;99.90;;;;;;5096245;28;20376;-77
2020/12/01 05:16:56;;;;;;;;;;;2.20;99.90;;;;;;5096268;28;20392;-76
2020/12/01 05:19:33;;;;;;;;;;;2.20;99.90;;;;;;5085770;28;20395;-76
2020/12/01 05:21:59;;;;;;;;;;;2.20;99.90;;;;;;5095971;28;19977;-76
2020/12/01 05:24:35;;;;;;;;;;;2.20;99.90;;;;;;5096316;28;19924;-76
2020/12/01 05:27:01;;;;;;;;;;;2.10;99.90;;;;;;5096189;28;19985;-76
2020/12/01 05:29:28;;;;;;;;;;;2.20;99.90;;;;;;5095959;28;20353;-76
2020/12/01 05:31:54;;;;;;;;;;;2.20;99.90;;;;;;5095477;28;19924;-75
2020/12/01 05:34:21;;;;;;;;;;;2.30;99.90;;;;;;5096090;28;19931;-75
2020/12/01 05:36:47;;;;;;;;;;;2.20;99.90;;;;;;5095889;28;19928;-76
2020/12/01 05:39:15;;;;;;;;;;;2.20;99.90;;;;;;5095853;28;19924;-75
2020/12/01 05:41:42;;;;;;;;;;;2.20;99.90;;;;;;5095378;28;19924;-75
2020/12/01 05:44:15;;;;;;;;;;;2.20;99.90;;;;;;5095688;28;19924;-75
2020/12/01 05:46:43;;;;;;;;;;;2.20;99.90;;;;;;5095645;28;20426;-75
2020/12/01 05:49:23;;;;;;;;;;;2.20;99.90;;;;;;5095766;28;19924;-76
2020/12/01 05:51:53;;;;;;;;;;;2.20;99.90;;;;;;5095305;28;19924;-77
2020/12/01 05:54:21;;;;;;;;;;;2.30;99.90;;;;;;5095587;28;19928;-76
2020/12/01 05:56:48;;;;;;;;;;;2.20;99.90;;;;;;5095499;28;19977;-76
2020/12/01 05:59:15;;;;;;;;;;;2.20;99.90;;;;;;5095379;28;20450;-76
2020/12/01 06:01:43;;;;;;;;;;;2.20;99.90;;;;;;5095192;28;19970;-75
2020/12/01 06:04:11;;;;;;;;;;;2.10;99.90;;;;;;5095375;28;19924;-76
2020/12/01 06:06:53;;;;;;;;;;;2.10;99.90;;;;;;5095271;28;19977;-76
2020/12/01 06:09:35;;;;;;;;;;;2.20;99.90;;;;;;5095378;28;19946;-76
2020/12/01 06:12:04;;;;;;;;;;;2.10;99.90;;;;;;5095093;28;19928;-76
2020/12/01 06:14:33;;;;;;;;;;;2.10;99.90;;;;;;5094488;28;19923;-76
2020/12/01 06:17:02;;;;;;;;;;;2.10;99.90;;;;;;5095154;28;20004;-76
2020/12/01 06:19:31;;;;;;;;;;;2.00;99.90;;;;;;5094982;28;19977;-76
2020/12/01 06:22:16;;;;;;;;;;;2.00;99.90;;;;;;5094689;28;19924;-76
2020/12/01 06:25:08;;;;;;;;;;;2.00;99.90;;;;;;5095004;28;19977;-76
2020/12/01 06:27:45;;;;;;;;;;;2.00;99.90;;;;;;5094776;28;19978;-76
2020/12/01 06:30:34;;;;;;;;;;;2.00;99.90;;;;;;5094750;28;19924;-75
2020/12/01 06:33:19;;;;;;;;;;;2.00;99.90;;;;;;5094766;28;19940;-76
2020/12/01 06:36:08;;;;;;;;;;;2.00;99.90;;;;;;5094719;28;20384;-75
2020/12/01 06:38:44;;;;;;;;;;;2.00;99.90;;;;;;5094637;28;19924;-75
2020/12/01 06:41:14;;;;;;;;;;;1.90;99.90;;;;;;5094636;28;19924;-76
2020/12/01 06:43:47;;;;;;;;;;;1.90;99.90;;;;;;5094715;28;19977;-75
2020/12/01 06:46:21;;;;;;;;;;;1.90;99.90;;;;;;5094422;28;20398;-76
2020/12/01 06:48:48;;;;;;;;;;;1.90;99.90;;;;;;5094423;28;19985;-76
2020/12/01 06:51:16;;;;;;;;;;;1.80;99.90;;;;;;5094438;28;19931;-76
2020/12/01 06:53:42;;;;;;;;;;;1.80;99.90;;;;;;5094342;28;20384;-76
2020/12/01 06:56:14;;;;;;;;;;;1.80;99.90;;;;;;5094528;28;19931;-75
2020/12/01 06:58:41;;;;;;;;;;;1.80;99.90;;;;;;5094522;28;19924;-76
2020/12/01 07:01:09;;;;;;;;;;;1.80;99.90;;;;;;5094051;28;19924;-76
2020/12/01 07:03:35;;;;;;;;;;;1.80;99.90;;;;;;5094140;28;20437;-76
2020/12/01 07:06:11;;;;;;;;;;;1.90;99.90;;;;;;5094306;28;19931;-76
2020/12/01 07:08:38;;;;;;;;;;;1.80;99.90;;;;;;5094273;28;19924;-75
2020/12/01 07:11:06;;;;;;;;;;;1.80;99.90;;;;;;5094253;28;20424;-74
2020/12/01 07:13:36;;;;;;;;;;;1.80;99.90;;;;;;5094517;28;19924;-76
2020/12/01 07:16:06;;;;;;;;;;;1.90;99.90;;;;;;5093888;28;20377;-76
2020/12/01 07:18:32;;;;;;;;;;;1.80;99.90;;;;;;5093858;28;20368;-76
2020/12/01 07:21:04;;;;;;;;;;;1.90;99.90;;;;;;5093774;28;19942;-75
2020/12/01 07:23:32;;;;;;;;;;;1.90;99.90;;;;;;5093862;28;20399;-75
2020/12/01 07:26:02;;;;;;;;;;;1.90;99.90;;;;;;5093759;28;19924;-76
2020/12/01 07:28:34;;;;;;;;;;;1.90;99.90;;;;;;5093695;28;19993;-76
2020/12/01 07:31:02;;;;;;;;;;;2.00;99.90;;;;;;5093453;28;19924;-76
2020/12/01 07:33:29;;;;;;;;;;;1.90;99.90;;;;;;5093687;28;19928;-75
2020/12/01 07:35:56;;;;;;;;;;;2.00;99.90;;;;;;5093929;28;19928;-75
2020/12/01 07:38:31;;;;;;;;;;;2.00;99.90;;;;;;5093684;28;19969;-76
2020/12/01 07:40:59;;;;;;;;;;;2.00;99.90;;;;;;5093482;28;19923;-76
2020/12/01 07:43:26;;;;;;;;;;;2.00;99.90;;;;;;5093737;28;19993;-76
2020/12/01 07:46:00;;;;;;;;;;;2.00;99.90;;;;;;5093382;28;19949;-76
2020/12/01 07:48:26;;;;;;;;;;;2.10;99.90;;;;;;5093255;28;20335;-76
2020/12/01 07:51:01;;;;;;;;;;;2.00;99.90;;;;;;5093341;28;19931;-76
2020/12/01 07:53:27;;;;;;;;;;;2.00;99.90;;;;;;5093267;28;20285;-76
2020/12/01 07:55:59;;;;;;;;;;;2.10;99.90;;;;;;5093447;28;19977;-76
2020/12/01 07:58:27;;;;;;;;;;;2.20;99.90;;;;;;5093515;28;19924;-76
2020/12/01 08:00:55;;;;;;;;;;;2.20;99.90;;;;;;5092994;28;19928;-76
2020/12/01 08:03:21;;;;;;;;;;;2.20;99.90;;;;;;5093047;28;19924;-75
2020/12/01 08:05:48;;;;;;;;;;;2.30;99.90;;;;;;5093075;28;19924;-75
2020/12/01 08:08:15;;;;;;;;;;;2.30;99.90;;;;;;5092904;28;19947;-76
2020/12/01 08:10:41;;;;;;;;;;;2.30;99.90;;;;;;5093115;28;19924;-75
2020/12/01 08:13:07;;;;;;;;;;;2.30;99.90;;;;;;5092791;28;20347;-76
2020/12/01 08:15:33;;;;;;;;;;;2.30;99.90;;;;;;5093069;28;20037;-76
2020/12/01 08:18:02;;;;;;;;;;;2.30;99.90;;;;;;5093055;28;20048;-76
2020/12/01 08:20:29;;;;;;;;;;;2.40;99.90;;;;;;5092774;28;19924;-76
2020/12/01 08:22:59;;;;;;;;;;;2.40;99.90;;;;;;5092731;28;19928;-76
2020/12/01 08:25:28;;;;;;;;;;;2.40;99.90;;;;;;5093111;28;19924;-76
2020/12/01 08:27:56;;;;;;;;;;;2.50;99.90;;;;;;5092761;28;19969;-76
2020/12/01 08:30:26;;;;;;;;;;;2.50;99.90;;;;;;5092749;28;19928;-77
2020/12/01 08:32:55;;;;;;;;;;;2.60;99.90;;;;;;5092419;28;19924;-76
2020/12/01 08:35:26;;;;;;;;;;;2.50;99.90;;;;;;5092629;28;19970;-77
2020/12/01 08:37:57;;;;;;;;;;;2.60;99.90;;;;;;5092362;28;20040;-76
2020/12/01 08:40:26;;;;;;;;;;;2.60;99.90;;;;;;5092696;28;19928;-76
2020/12/01 08:43:00;;;;;;;;;;;2.70;99.90;;;;;;5092359;28;19924;-75
2020/12/01 08:45:33;;;;;;;;;;;2.80;99.90;;;;;;5092326;28;19964;-76
2020/12/01 08:48:02;;;;;;;;;;;2.90;99.90;;;;;;5092006;28;21305;-76
2020/12/01 08:50:30;;;;;;;;;;;3.00;99.90;;;;;;5092672;28;19928;-77
2020/12/01 08:53:06;;;;;;;;;;;3.00;99.90;;;;;;5092207;28;19932;-77
2020/12/01 08:55:34;;;;;;;;;;;3.00;99.90;;;;;;5092469;28;19924;-77
2020/12/01 08:58:05;;;;;;;;;;;3.20;99.90;;;;;;5092406;28;19969;-77
2020/12/01 09:00:34;;;;;;;;;;;3.20;99.90;;;;;;5092156;28;20399;-76
2020/12/01 09:03:06;;;;;;;;;;;3.20;99.90;;;;;;5092219;28;19924;-76
2020/12/01 09:05:34;;;;;;;;;;;3.20;99.90;;;;;;5092427;28;19978;-76
2020/12/01 09:08:10;;;;;;;;;;;3.30;99.90;;;;;;5092171;28;19977;-76
2020/12/01 09:10:37;;;;;;;;;;;3.30;99.90;;;;;;5092601;28;19924;-76
2020/12/01 09:13:10;;;;;;;;;;;3.30;99.90;;;;;;5091898;28;20006;-76
2020/12/01 09:15:48;;;;;;;;;;;3.40;99.90;;;;;;5092334;28;19924;-76
2020/12/01 09:18:33;;;;;;;;;;;3.40;99.90;;;;;;5092283;28;19932;-76
2020/12/01 09:21:50;;;;;;;;;;;3.50;99.90;;;;;;5091758;28;20472;-76
2020/12/01 09:23:57;;;;;;;;;;;3.60;99.90;;;;;;5091882;28;19924;-76
2020/12/01 09:26:23;;;;;;;;;;;3.70;99.90;;;;;;5092189;28;19981;-76
2020/12/01 09:28:51;;;;;;;;;;;3.80;99.90;;;;;;5091970;28;19924;-75
2020/12/01 09:31:17;;;;;;;;;;;3.90;99.90;;;;;;5091792;28;19970;-76
2020/12/01 09:33:43;;;;;;;;;;;4.10;99.90;;;;;;5091952;28;20599;-76
2020/12/01 09:36:15;;;;;;;;;;;4.10;99.90;;;;;;5092325;28;20385;-76
2020/12/01 09:38:40;;;;;;;;;;;4.10;99.90;;;;;;5091988;28;20380;-78
2020/12/01 09:41:11;;;;;;;;;;;4.20;99.90;;;;;;5091813;28;19924;-76
2020/12/01 09:43:40;;;;;;;;;;;4.20;99.90;;;;;;5091913;28;19924;-73
2020/12/01 09:46:11;;;;;;;;;;;4.20;99.90;;;;;;5091840;28;19928;-76
2020/12/01 09:48:39;;;;;;;;;;;4.20;99.90;;;;;;5092287;28;19967;-74
2020/12/01 09:51:05;;;;;;;;;;;4.10;99.90;;;;;;5095398;28;19924;-75
2020/12/01 09:56:30;;;;;;;;;;;4.20;99.90;;;;;;5093658;28;19931;-76
2020/12/01 10:10:11;;;;;;;;;;;4.30;99.90;;;;;;5095085;28;19980;-76
2020/12/01 10:12:46;;;;;;;;;;;4.10;99.90;;;;;;5095358;28;20044;-76
2020/12/01 10:21:02;;;;;;;;;;;4.10;99.90;;;;;;5094889;28;19926;-76
2020/12/01 10:37:11;;;;;;;;;;;4.00;99.90;;;;;;5092656;28;20404;-76
2020/12/01 10:39:37;;;;;;;;;;;4.10;99.90;;;;;;5094635;28;19970;-75
2020/12/01 10:42:06;;;;;;;;;;;4.10;99.90;;;;;;5094089;28;19924;-76
2020/12/01 10:44:32;;;;;;;;;;;4.00;99.90;;;;;;5094403;28;20039;-74
2020/12/01 10:46:58;;;;;;;;;;;3.90;99.90;;;;;;5094211;28;20364;-74
2020/12/01 10:49:24;;;;;;;;;;;3.90;99.90;;;;;;5094325;28;19931;-74
2020/12/01 10:51:50;;;;;;;;;;;3.90;99.90;;;;;;5093966;28;19924;-76
2020/12/01 10:54:16;;;;;;;;;;;3.90;99.90;;;;;;5094467;28;19932;-76
2020/12/01 10:56:42;;;;;;;;;;;3.90;99.90;;;;;;5094538;28;19977;-77
2020/12/01 10:59:09;;;;;;;;;;;3.80;99.90;;;;;;5094416;28;19924;-77
2020/12/01 11:01:35;;;;;;;;;;;3.90;99.90;;;;;;5093855;28;19928;-77
2020/12/01 11:04:01;;;;;;;;;;;3.90;99.90;;;;;;5094291;28;19930;-77
2020/12/01 11:06:27;;;;;;;;;;;3.90;99.90;;;;;;5094281;28;19924;-77
2020/12/01 11:08:53;;;;;;;;;;;3.90;99.90;;;;;;5094072;28;19928;-77
2020/12/01 11:11:19;;;;;;;;;;;3.90;99.90;;;;;;5093794;28;19924;-76
2020/12/01 11:13:45;;;;;;;;;;;4.00;99.90;;;;;;5093943;28;19928;-76
2020/12/01 11:16:12;;;;;;;;;;;4.00;99.90;;;;;;5094171;28;19924;-76
2020/12/01 11:18:38;;;;;;;;;;;4.10;99.90;;;;;;5094192;28;19977;-76
2020/12/01 11:21:04;;;;;;;;;;;4.20;99.90;;;;;;5093959;28;19924;-76
2020/12/01 11:23:30;;;;;;;;;;;4.40;99.90;;;;;;5093726;28;20380;-75
2020/12/01 11:25:56;;;;;;;;;;;4.30;99.90;;;;;;5093823;28;19931;-76
2020/12/01 11:28:22;;;;;;;;;;;4.30;99.90;;;;;;5093813;28;19928;-76
2020/12/01 11:30:48;;;;;;;;;;;4.50;99.90;;;;;;5093808;28;19977;-76
2020/12/01 11:33:15;;;;;;;;;;;4.40;99.90;;;;;;5093449;28;19924;-75
2020/12/01 11:35:42;;;;;;;;;;;4.20;99.90;;;;;;5093866;28;19928;-76
2020/12/01 11:38:08;;;;;;;;;;;4.20;99.90;;;;;;5093576;28;20442;-76
2020/12/01 11:40:34;;;;;;;;;;;4.30;99.90;;;;;;5093359;28;20335;-76
2020/12/01 11:43:00;;;;;;;;;;;4.20;99.90;;;;;;5093295;28;19924;-76
2020/12/01 11:45:26;;;;;;;;;;;4.30;99.90;;;;;;5093466;28;19924;-76
2020/12/01 11:47:52;;;;;;;;;;;4.40;99.90;;;;;;5093262;28;20269;-76
2020/12/01 11:50:19;;;;;;;;;;;4.40;99.90;;;;;;5093239;28;19931;-76
2020/12/01 11:52:45;;;;;;;;;;;4.30;99.90;;;;;;5093200;28;19924;-76
2020/12/01 11:55:11;;;;;;;;;;;4.20;99.90;;;;;;5093188;28;20331;-76
2020/12/01 11:57:37;;;;;;;;;;;4.10;99.90;;;;;;5093425;28;19924;-75
2020/12/01 12:00:04;;;;;;;;;;;4.10;99.90;;;;;;5093415;28;19931;-76
2020/12/01 12:02:30;;;;;;;;;;;4.10;99.90;;;;;;5092989;28;20068;-75
2020/12/01 12:04:56;;;;;;;;;;;4.10;99.90;;;;;;5093189;28;20420;-76
2020/12/01 12:07:22;;;;;;;;;;;4.10;99.90;;;;;;5093262;28;19927;-75
2020/12/01 12:09:48;;;;;;;;;;;4.10;99.90;;;;;;5093208;28;19974;-75
2020/12/01 12:12:14;;;;;;;;;;;4.00;99.90;;;;;;5091695;28;20392;-76
2020/12/01 12:14:40;;;;;;;;;;;4.00;99.90;;;;;;5092949;28;19928;-76
2020/12/01 12:17:06;;;;;;;;;;;4.10;99.90;;;;;;5093230;28;19924;-76
2020/12/01 12:19:33;;;;;;;;;;;4.20;99.90;;;;;;5093255;28;19931;-76
2020/12/01 12:21:58;;;;;;;;;;;4.20;99.90;;;;;;5092522;28;20007;-76
2020/12/01 12:24:25;;;;;;;;;;;4.20;99.90;;;;;;5092763;28;19925;-76
2020/12/01 12:26:51;;;;;;;;;;;4.20;99.90;;;;;;5092947;28;19928;-76
2020/12/01 12:29:17;;;;;;;;;;;4.20;99.90;;;;;;5093021;28;19932;-75
2020/12/01 12:31:43;;;;;;;;;;;4.10;99.90;;;;;;5092293;28;19935;-77
2020/12/01 12:34:09;;;;;;;;;;;4.10;99.90;;;;;;5092771;28;19924;-75
2020/12/01 12:36:35;;;;;;;;;;;4.10;99.90;;;;;;5092659;28;19924;-76
2020/12/01 12:39:01;;;;;;;;;;;4.20;99.90;;;;;;5092460;28;19924;-76
2020/12/01 12:41:28;;;;;;;;;;;4.20;99.90;;;;;;5092427;28;19957;-76
2020/12/01 12:43:54;;;;;;;;;;;4.30;99.90;;;;;;5092659;28;19928;-76
2020/12/01 12:46:20;;;;;;;;;;;4.40;99.90;;;;;;5092545;28;19931;-76
2020/12/01 12:48:46;;;;;;;;;;;4.30;99.90;;;;;;5092579;28;20292;-76
2020/12/01 12:51:12;;;;;;;;;;;4.30;99.90;;;;;;5092190;28;19924;-76
2020/12/01 12:53:38;;;;;;;;;;;4.30;99.90;;;;;;5096313;28;20383;-74
2020/12/01 12:56:04;;;;;;;;;;;4.30;99.90;;;;;;5092582;28;19928;-75
2020/12/01 12:58:31;;;;;;;;;;;4.40;99.90;;;;;;5092277;28;20388;-74
2020/12/01 13:00:57;;;;;;;;;;;4.40;99.90;;;;;;5091999;28;19980;-74
2020/12/01 13:03:23;;;;;;;;;;;4.40;99.90;;;;;;5092160;28;19935;-75
2020/12/01 13:05:49;;;;;;;;;;;4.20;99.90;;;;;;5092090;28;19924;-75
2020/12/01 13:08:15;;;;;;;;;;;4.10;99.90;;;;;;5092937;28;20383;-74
2020/12/01 13:10:41;;;;;;;;;;;4.10;99.90;;;;;;5092065;28;19935;-73
2020/12/01 13:13:07;;;;;;;;;;;4.10;99.90;;;;;;5112392;28;19976;-76
2020/12/01 13:15:34;;;;;;;;;;;4.20;99.90;;;;;;5112565;28;19928;-76
2020/12/01 13:18:00;;;;;;;;;;;4.20;99.90;;;;;;5112607;28;19924;-76
2020/12/01 13:20:28;;;;;;;;;;;4.20;99.90;;;;;;5112732;28;19948;-75
2020/12/01 13:22:54;;;;;;;;;;;4.20;99.90;;;;;;5113137;28;20451;-75
2020/12/01 13:25:21;;;;;;;;;;;4.20;99.90;;;;;;5117204;28;19982;-75
2020/12/01 13:27:47;;;;;;;;;;;4.30;99.90;;;;;;5117383;28;19924;-76
2020/12/01 13:30:14;;;;;;;;;;;4.30;99.90;;;;;;5116480;28;20292;-76
2020/12/01 13:32:40;;;;;;;;;;;4.40;99.90;;;;;;5116148;28;19928;-76
2020/12/01 13:35:07;;;;;;;;;;;4.40;99.90;;;;;;5116366;28;19924;-76
2020/12/01 13:37:33;;;;;;;;;;;4.40;99.90;;;;;;5116519;28;19951;-76
2020/12/01 13:39:59;;;;;;;;;;;4.40;99.90;;;;;;5116375;28;19924;-76
2020/12/01 13:42:25;;;;;;;;;;;4.40;99.90;;;;;;5115922;28;19924;-76
2020/12/01 13:44:51;;;;;;;;;;;4.40;99.90;;;;;;5116122;28;19928;-76
2020/12/01 13:47:17;;;;;;;;;;;4.40;99.90;;;;;;5116257;28;19931;-76
2020/12/01 13:49:44;;;;;;;;;;;4.40;99.90;;;;;;5116089;27;20380;-76
2020/12/01 13:52:10;;;;;;;;;;;4.50;99.90;;;;;;5115969;28;19924;-76
2020/12/01 13:54:37;;;;;;;;;;;4.50;99.90;;;;;;5115865;28;19977;-76
2020/12/01 13:57:03;;;;;;;;;;;4.50;99.90;;;;;;5116215;28;20312;-76
2020/12/01 13:59:29;;;;;;;;;;;4.50;99.90;;;;;;5116123;28;19927;-76
2020/12/01 14:01:55;;;;;;;;;;;4.50;99.90;;;;;;5115661;28;19928;-76
2020/12/01 14:04:21;;;;;;;;;;;4.40;99.90;;;;;;5115767;28;20010;-76
2020/12/01 14:06:51;;;;;;;;;;;4.40;99.90;;;;;;5116029;28;19976;-75
2020/12/01 14:09:17;;;;;;;;;;;4.30;99.90;;;;;;5115582;28;20440;-76
2020/12/01 14:11:43;;;;;;;;;;;4.30;99.90;;;;;;5115452;28;19950;-75
2020/12/01 14:14:09;;;;;;;;;;;4.20;99.90;;;;;;5115551;28;20339;-75
2020/12/01 14:16:35;;;;;;;;;;;4.20;99.90;;;;;;5115544;28;19924;-75
2020/12/01 14:19:01;;;;;;;;;;;4.20;99.90;;;;;;5115625;28;19927;-75
2020/12/01 14:21:27;;;;;;;;;;;4.20;99.90;;;;;;5115209;28;19924;-75
2020/12/01 14:23:54;;;;;;;;;;;4.20;99.90;;;;;;5115558;28;19930;-76
2020/12/01 14:26:20;;;;;;;;;;;4.20;99.90;;;;;;5115502;28;19923;-76
2020/12/01 14:28:46;;;;;;;;;;;4.10;99.90;;;;;;5115224;28;19947;-75
2020/12/01 14:31:12;;;;;;;;;;;4.10;99.90;;;;;;5115006;28;19930;-75
2020/12/01 14:33:38;;;;;;;;;;;4.10;99.90;;;;;;5115006;28;20020;-76
2020/12/01 14:36:07;;;;;;;;;;;4.10;99.90;;;;;;5114392;28;20406;-76
2020/12/01 14:38:33;;;;;;;;;;;4.10;99.90;;;;;;5115342;28;19993;-75
2020/12/01 14:41:01;;;;;;;;;;;4.10;99.90;;;;;;5114923;28;19924;-75
2020/12/01 14:43:27;;;;;;;;;;;4.10;99.90;;;;;;5114892;28;19985;-75
2020/12/01 14:45:54;;;;;;;;;;;4.10;99.90;;;;;;5114649;28;19928;-75
2020/12/01 14:48:38;;;;;;;;;;;4.10;99.90;;;;;;5114830;28;20338;-77
2020/12/01 14:51:27;;;;;;;;;;;4.10;99.90;;;;;;5114670;28;19927;-75
2020/12/01 14:53:57;;;;;;;;;;;4.00;99.90;;;;;;5115011;28;19924;-77
2020/12/01 14:56:38;;;;;;;;;;;4.00;99.90;;;;;;5114700;28;20031;-75
2020/12/01 14:59:23;;;;;;;;;;;4.00;99.90;;;;;;5115142;28;19981;-76
2020/12/01 15:01:55;;;;;;;;;;;4.00;99.90;;;;;;5114491;28;19974;-76
2020/12/01 15:04:45;;;;;;;;;;;4.00;99.90;;;;;;5114821;28;19924;-76
2020/12/01 15:07:32;;;;;;;;;;;4.00;99.90;;;;;;5098760;28;19923;-76
2020/12/01 15:10:17;;;;;;;;;;;4.00;99.90;;;;;;5109145;28;19924;-76
2020/12/01 15:12:45;;;;;;;;;;;4.00;99.90;;;;;;5114369;28;19924;-75